Toronto, Canada
Current Conditions -  °F | °C
As of 11:00 PM on Tuesday 21 Oct 2014 (Local Time) from CYYZ Reporting Station
Rain Showers Rain Showers  
Wind Chill: 36°   Ceiling: 1700
Heat Index: 43°   Visibility: 15mi
Dew Point: 39°   Wind: 14mph
Humidity: 87%   Direction: 20°NNE
Pressure: 30.16"   Gusts: 22mph
Location:  43.65°N, 79.39°W
Report Text: CYYZ 220300Z 02012G19KT 15SM -SHRA BKN017 OVC031 06/04 A3016 RMK SC5SC3 SLP217
Loading
Personal Weather Stations






























Interactive Weather Map New forecast layout! Learn more

10-Day Weather Forecast

Advertisements
Track Severe Weather on mobile